Time,TemperatureF,DewpointF,PressureIn,WindDirection,WindDirectionDegrees,WindSpeedMPH,WindSpeedGustMPH,Humidity,HourlyPrecipIn,Conditions,Clouds,dailyrainin,SoftwareType,DateUTC
2013-02-16 00:01:00,28.7,25.0,29.92,South,179,0.0,0.0,86,0.00,,,0.00,Wunderground v.1.15,2013-02-16 05:01:00,
2013-02-16 00:02:00,28.7,25.0,29.92,South,179,0.0,0.0,86,0.00,,,0.00,Wunderground v.1.15,2013-02-16 05:02:00,
2013-02-16 00:05:00,28.7,25.0,29.92,South,179,0.0,0.0,86,0.00,,,0.00,Wunderground v.1.15,2013-02-16 05:05:00,
2013-02-16 00:06:00,28.7,25.0,29.92,South,179,0.0,0.0,86,0.00,,,0.00,Wunderground v.1.15,2013-02-16 05:06:00,
2013-02-16 00:11:00,28.7,25.3,29.92,South,179,0.0,0.0,87,0.00,,,0.00,Wunderground v.1.15,2013-02-16 05:11:00,
2013-02-16 00:16:00,28.7,25.0,29.92,South,179,0.0,0.0,86,0.00,,,0.00,Wunderground v.1.15,2013-02-16 05:16:00,
2013-02-16 00:22:00,29.0,25.3,29.92,South,179,0.0,0.0,86,0.00,,,0.00,Wunderground v.1.15,2013-02-16 05:22:00,
2013-02-16 00:27:00,29.0,25.3,29.91,South,179,0.0,0.0,86,0.00,,,0.00,Wunderground v.1.15,2013-02-16 05:27:00,
2013-02-16 00:32:00,29.1,25.4,29.91,South,179,0.0,0.0,86,0.00,,,0.00,Wunderground v.1.15,2013-02-16 05:32:00,
2013-02-16 00:36:00,29.1,25.4,29.91,South,179,0.0,0.0,86,0.00,,,0.00,Wunderground v.1.15,2013-02-16 05:36:00,
2013-02-16 00:41:00,29.1,25.4,29.91,South,179,0.0,0.0,86,0.00,,,0.00,Wunderground v.1.15,2013-02-16 05:41:00,
2013-02-16 00:47:00,29.1,25.2,29.93,South,179,0.0,0.0,85,0.00,,,0.00,Wunderground v.1.15,2013-02-16 05:47:00,
2013-02-16 00:53:00,29.3,25.4,29.93,South,179,0.0,0.0,85,0.00,,,0.00,Wunderground v.1.15,2013-02-16 05:53:00,
2013-02-16 00:57:00,29.4,24.9,29.93,South,179,0.0,0.0,83,0.00,,,0.00,Wunderground v.1.15,2013-02-16 05:57:00,
2013-02-16 01:03:00,29.5,25.0,29.93,South,179,0.0,0.0,83,0.00,,,0.00,Wunderground v.1.15,2013-02-16 06:03:00,
2013-02-16 01:08:00,29.5,25.3,29.93,South,179,0.0,0.0,84,0.00,,,0.00,Wunderground v.1.15,2013-02-16 06:08:00,
2013-02-16 01:13:00,29.4,25.4,29.93,South,179,0.0,0.0,85,0.00,,,0.00,Wunderground v.1.15,2013-02-16 06:13:00,
2013-02-16 01:19:00,29.3,25.4,29.93,South,179,0.0,0.0,85,0.00,,,0.00,Wunderground v.1.15,2013-02-16 06:19:00,
2013-02-16 01:24:00,29.3,25.6,29.93,South,179,0.0,0.0,86,0.00,,,0.00,Wunderground v.1.15,2013-02-16 06:24:00,
2013-02-16 01:30:00,29.3,25.6,29.94,South,179,0.0,0.0,86,0.00,,,0.00,Wunderground v.1.15,2013-02-16 06:30:00,
2013-02-16 01:36:00,29.3,25.6,29.94,South,179,0.0,0.0,86,0.00,,,0.00,Wunderground v.1.15,2013-02-16 06:36:00,
2013-02-16 01:42:00,29.4,25.7,29.94,South,179,0.0,0.0,86,0.00,,,0.00,Wunderground v.1.15,2013-02-16 06:42:00,
2013-02-16 01:47:00,29.5,25.5,29.94,South,179,0.0,0.0,85,0.00,,,0.00,Wunderground v.1.15,2013-02-16 06:47:00,
2013-02-16 01:54:00,29.7,25.5,29.94,South,179,0.0,0.0,84,0.00,,,0.00,Wunderground v.1.15,2013-02-16 06:54:00,
2013-02-16 01:59:00,29.7,25.2,29.94,South,179,0.0,0.0,83,0.00,,,0.00,Wunderground v.1.15,2013-02-16 06:59:00,
2013-02-16 02:04:00,29.8,25.3,29.94,South,179,0.0,0.0,83,0.00,,,0.00,Wunderground v.1.15,2013-02-16 07:04:00,
2013-02-16 02:09:00,30.0,25.2,29.94,South,179,0.0,0.0,82,0.00,,,0.00,Wunderground v.1.15,2013-02-16 07:09:00,
2013-02-16 02:15:00,30.0,25.8,29.94,South,179,0.0,0.0,84,0.00,,,0.00,Wunderground v.1.15,2013-02-16 07:15:00,
2013-02-16 02:20:00,30.0,25.2,29.94,South,179,0.0,0.0,82,0.00,,,0.00,Wunderground v.1.15,2013-02-16 07:20:00,
2013-02-16 02:25:00,30.1,25.0,29.94,South,179,0.0,0.0,81,0.00,,,0.00,Wunderground v.1.15,2013-02-16 07:25:00,
2013-02-16 02:30:00,30.4,24.7,29.94,South,179,0.0,0.0,79,0.00,,,0.00,Wunderground v.1.15,2013-02-16 07:30:00,
2013-02-16 02:35:00,30.6,24.2,29.94,South,179,0.0,0.0,77,0.00,,,0.00,Wunderground v.1.15,2013-02-16 07:35:00,
2013-02-16 02:41:00,30.7,24.0,29.94,South,179,0.0,0.0,76,0.00,,,0.00,Wunderground v.1.15,2013-02-16 07:41:00,
2013-02-16 02:46:00,30.9,25.5,29.92,South,179,0.0,0.0,80,0.00,,,0.00,Wunderground v.1.15,2013-02-16 07:46:00,
2013-02-16 02:51:00,30.7,25.3,29.92,South,179,0.0,1.0,80,0.00,,,0.00,Wunderground v.1.15,2013-02-16 07:51:00,
2013-02-16 02:56:00,30.7,25.0,29.93,South,179,0.0,0.0,79,0.00,,,0.00,Wunderground v.1.15,2013-02-16 07:56:00,
2013-02-16 03:01:00,30.9,25.2,29.93,South,179,0.0,0.0,79,0.00,,,0.00,Wunderground v.1.15,2013-02-16 08:01:00,
2013-02-16 03:06:00,30.9,25.5,29.93,ENE,77,0.0,0.0,80,0.00,,,0.00,Wunderground v.1.15,2013-02-16 08:06:00,
2013-02-16 03:11:00,30.9,25.5,29.94,ENE,77,1.0,1.0,80,0.00,,,0.00,Wunderground v.1.15,2013-02-16 08:11:00,
2013-02-16 03:16:00,31.0,25.6,29.94,ENE,77,0.0,0.0,80,0.00,,,0.00,Wunderground v.1.15,2013-02-16 08:16:00,
2013-02-16 03:21:00,31.0,25.6,29.94,ENE,77,0.0,0.0,80,0.00,,,0.00,Wunderground v.1.15,2013-02-16 08:21:00,
2013-02-16 03:26:00,31.0,25.6,29.93,East,101,0.0,0.0,80,0.00,,,0.00,Wunderground v.1.15,2013-02-16 08:26:00,
2013-02-16 03:31:00,31.0,25.6,29.93,East,101,0.0,0.0,80,0.00,,,0.00,Wunderground v.1.15,2013-02-16 08:31:00,
2013-02-16 03:36:00,31.0,25.9,29.93,East,101,0.0,0.0,81,0.00,,,0.00,Wunderground v.1.15,2013-02-16 08:36:00,
2013-02-16 03:42:00,31.2,26.0,29.94,East,101,0.0,0.0,81,0.00,,,0.00,Wunderground v.1.15,2013-02-16 08:42:00,
2013-02-16 03:47:00,31.2,26.0,29.94,East,101,0.0,0.0,81,0.00,,,0.00,Wunderground v.1.15,2013-02-16 08:47:00,
2013-02-16 03:52:00,31.2,26.3,29.94,East,101,0.0,0.0,82,0.00,,,0.00,Wunderground v.1.15,2013-02-16 08:52:00,
2013-02-16 03:57:00,31.2,26.6,29.93,East,101,0.0,0.0,83,0.00,,,0.00,Wunderground v.1.15,2013-02-16 08:57:00,
2013-02-16 04:03:00,31.2,26.9,29.93,East,101,0.0,0.0,84,0.00,,,0.00,Wunderground v.1.15,2013-02-16 09:03:00,
2013-02-16 04:08:00,31.2,26.9,29.93,East,101,0.0,0.0,84,0.00,,,0.00,Wunderground v.1.15,2013-02-16 09:08:00,
2013-02-16 04:13:00,31.2,26.9,29.92,East,101,0.0,0.0,84,0.00,,,0.00,Wunderground v.1.15,2013-02-16 09:13:00,
2013-02-16 04:18:00,31.0,26.7,29.92,East,101,0.0,0.0,84,0.00,,,0.00,Wunderground v.1.15,2013-02-16 09:18:00,
2013-02-16 04:23:00,31.0,26.7,29.92,East,101,0.0,0.0,84,0.00,,,0.00,Wunderground v.1.15,2013-02-16 09:23:00,
2013-02-16 04:28:00,31.0,26.7,29.93,East,101,0.0,0.0,84,0.00,,,0.00,Wunderground v.1.15,2013-02-16 09:28:00,
2013-02-16 04:33:00,31.0,26.7,29.93,East,101,0.0,0.0,84,0.00,,,0.00,Wunderground v.1.15,2013-02-16 09:33:00,
2013-02-16 04:38:00,31.0,26.7,29.93,East,101,0.0,0.0,84,0.00,,,0.00,Wunderground v.1.15,2013-02-16 09:38:00,
2013-02-16 04:43:00,30.9,26.6,29.92,East,101,0.0,0.0,84,0.00,,,0.00,Wunderground v.1.15,2013-02-16 09:43:00,
2013-02-16 04:48:00,30.9,26.6,29.92,East,101,0.0,0.0,84,0.00,,,0.00,Wunderground v.1.15,2013-02-16 09:48:00,
2013-02-16 04:53:00,30.9,26.6,29.92,East,101,0.0,0.0,84,0.00,,,0.00,Wunderground v.1.15,2013-02-16 09:53:00,
2013-02-16 04:58:00,30.9,26.6,29.93,East,101,0.0,0.0,84,0.00,,,0.00,Wunderground v.1.15,2013-02-16 09:58:00,
2013-02-16 05:03:00,30.7,26.4,29.93,East,101,0.0,0.0,84,0.00,,,0.00,Wunderground v.1.15,2013-02-16 10:03:00,
2013-02-16 05:09:00,30.7,26.4,29.93,East,101,0.0,0.0,84,0.00,,,0.00,Wunderground v.1.15,2013-02-16 10:09:00,
2013-02-16 05:14:00,30.7,26.7,29.93,East,101,0.0,0.0,85,0.00,,,0.00,Wunderground v.1.15,2013-02-16 10:14:00,
2013-02-16 05:19:00,30.7,26.7,29.93,East,101,0.0,0.0,85,0.00,,,0.00,Wunderground v.1.15,2013-02-16 10:19:00,
2013-02-16 05:24:00,30.6,26.6,29.93,East,101,0.0,0.0,85,0.00,,,0.00,Wunderground v.1.15,2013-02-16 10:24:00,
2013-02-16 05:29:00,30.6,26.6,29.93,East,101,0.0,0.0,85,0.00,,,0.00,Wunderground v.1.15,2013-02-16 10:29:00,
2013-02-16 05:34:00,30.6,26.6,29.93,East,101,0.0,0.0,85,0.00,,,0.00,Wunderground v.1.15,2013-02-16 10:34:00,
2013-02-16 05:39:00,30.4,26.7,29.93,East,101,0.0,0.0,86,0.00,,,0.00,Wunderground v.1.15,2013-02-16 10:39:00,
2013-02-16 05:44:00,30.4,26.7,29.93,East,101,0.0,0.0,86,0.00,,,0.00,Wunderground v.1.15,2013-02-16 10:44:00,
2013-02-16 05:50:00,30.4,26.4,29.93,East,101,0.0,0.0,85,0.00,,,0.00,Wunderground v.1.15,2013-02-16 10:50:00,
2013-02-16 05:55:00,30.4,26.7,29.93,East,101,0.0,0.0,86,0.00,,,0.00,Wunderground v.1.15,2013-02-16 10:55:00,
2013-02-16 06:00:00,30.3,26.6,29.93,East,101,0.0,0.0,86,0.00,,,0.00,Wunderground v.1.15,2013-02-16 11:00:00,
2013-02-16 06:05:00,30.3,26.6,29.93,East,101,0.0,0.0,86,0.00,,,0.00,Wunderground v.1.15,2013-02-16 11:05:00,
2013-02-16 06:10:00,30.3,26.6,29.93,East,101,0.0,0.0,86,0.00,,,0.00,Wunderground v.1.15,2013-02-16 11:10:00,
2013-02-16 06:15:00,30.3,26.9,29.92,East,101,0.0,0.0,87,0.00,,,0.00,Wunderground v.1.15,2013-02-16 11:15:00,
2013-02-16 06:20:00,30.1,26.7,29.92,East,101,0.0,0.0,87,0.00,,,0.00,Wunderground v.1.15,2013-02-16 11:20:00,
2013-02-16 06:25:00,30.1,26.7,29.92,East,101,0.0,0.0,87,0.00,,,0.00,Wunderground v.1.15,2013-02-16 11:25:00,
2013-02-16 06:30:00,30.1,26.7,29.92,East,101,0.0,0.0,87,0.00,,,0.00,Wunderground v.1.15,2013-02-16 11:30:00,
2013-02-16 06:35:00,30.1,26.7,29.92,East,101,0.0,0.0,87,0.00,,,0.00,Wunderground v.1.15,2013-02-16 11:35:00,
2013-02-16 06:40:00,30.0,26.6,29.92,East,101,0.0,0.0,87,0.00,,,0.00,Wunderground v.1.15,2013-02-16 11:40:00,
2013-02-16 06:46:00,30.0,26.9,29.92,East,101,0.0,0.0,88,0.00,,,0.00,Wunderground v.1.15,2013-02-16 11:46:00,
2013-02-16 06:51:00,30.0,26.9,29.92,East,101,0.0,0.0,88,0.00,,,0.00,Wunderground v.1.15,2013-02-16 11:51:00,
2013-02-16 06:56:00,30.0,26.9,29.92,East,101,0.0,0.0,88,0.00,,,0.00,Wunderground v.1.15,2013-02-16 11:56:00,
2013-02-16 07:01:00,30.0,26.9,29.92,East,101,0.0,0.0,88,0.00,,,0.00,Wunderground v.1.15,2013-02-16 12:01:00,
2013-02-16 07:06:00,29.8,26.7,29.92,East,101,0.0,0.0,88,0.00,,,0.00,Wunderground v.1.15,2013-02-16 12:06:00,
2013-02-16 07:11:00,29.8,26.7,29.92,East,101,0.0,0.0,88,0.00,,,0.00,Wunderground v.1.15,2013-02-16 12:11:00,
2013-02-16 07:16:00,29.8,27.0,29.92,East,101,0.0,0.0,89,0.00,,,0.00,Wunderground v.1.15,2013-02-16 12:16:00,
2013-02-16 07:21:00,29.8,27.0,29.92,East,101,0.0,0.0,89,0.00,,,0.00,Wunderground v.1.15,2013-02-16 12:21:00,
2013-02-16 07:27:00,29.8,27.0,29.93,East,101,0.0,0.0,89,0.00,,,0.00,Wunderground v.1.15,2013-02-16 12:27:00,
2013-02-16 07:32:00,29.8,27.0,29.93,East,101,0.0,0.0,89,0.00,,,0.00,Wunderground v.1.15,2013-02-16 12:32:00,
2013-02-16 07:37:00,29.8,27.0,29.93,East,101,0.0,0.0,89,0.00,,,0.00,Wunderground v.1.15,2013-02-16 12:37:00,
2013-02-16 07:42:00,29.8,27.2,29.93,East,101,0.0,0.0,90,0.00,,,0.00,Wunderground v.1.15,2013-02-16 12:42:00,
2013-02-16 07:48:00,29.8,27.2,29.93,East,101,0.0,0.0,90,0.00,,,0.00,Wunderground v.1.15,2013-02-16 12:48:00,
2013-02-16 07:53:00,30.0,27.4,29.93,East,101,0.0,0.0,90,0.00,,,0.00,Wunderground v.1.15,2013-02-16 12:53:00,
2013-02-16 07:58:00,30.0,27.7,29.92,East,101,0.0,0.0,91,0.00,,,0.00,Wunderground v.1.15,2013-02-16 12:58:00,
2013-02-16 08:03:00,30.1,27.8,29.92,East,101,0.0,0.0,91,0.00,,,0.00,Wunderground v.1.15,2013-02-16 13:03:00,
2013-02-16 08:08:00,30.1,27.8,29.92,East,101,0.0,0.0,91,0.00,,,0.00,Wunderground v.1.15,2013-02-16 13:08:00,
2013-02-16 08:13:00,30.4,28.4,29.93,East,101,0.0,0.0,92,0.00,,,0.00,Wunderground v.1.15,2013-02-16 13:13:00,
2013-02-16 08:18:00,30.9,28.6,29.93,East,101,0.0,0.0,91,0.00,,,0.00,Wunderground v.1.15,2013-02-16 13:18:00,
2013-02-16 08:24:00,31.2,28.6,29.93,East,101,0.0,0.0,90,0.00,,,0.00,Wunderground v.1.15,2013-02-16 13:24:00,
2013-02-16 08:29:00,31.3,28.4,29.94,East,101,0.0,0.0,89,0.00,,,0.00,Wunderground v.1.15,2013-02-16 13:29:00,
2013-02-16 08:34:00,31.5,28.1,29.94,East,101,0.0,0.0,87,0.00,,,0.00,Wunderground v.1.15,2013-02-16 13:34:00,
2013-02-16 08:39:00,31.6,27.6,29.94,East,101,0.0,0.0,85,0.00,,,0.00,Wunderground v.1.15,2013-02-16 13:39:00,
2013-02-16 08:45:00,31.9,27.9,29.93,East,101,0.0,0.0,85,0.00,,,0.00,Wunderground v.1.15,2013-02-16 13:45:00,
2013-02-16 08:50:00,31.9,26.1,29.93,East,101,0.0,0.0,79,0.00,,,0.00,Wunderground v.1.15,2013-02-16 13:50:00,
2013-02-16 08:55:00,32.1,26.3,29.93,East,101,0.0,0.0,79,0.00,,,0.00,Wunderground v.1.15,2013-02-16 13:55:00,
2013-02-16 09:00:00,32.1,26.3,29.93,East,101,0.0,0.0,79,0.00,,,0.00,Wunderground v.1.15,2013-02-16 14:00:00,
2013-02-16 09:05:00,32.2,25.8,29.93,East,101,0.0,1.0,77,0.00,,,0.00,Wunderground v.1.15,2013-02-16 14:05:00,
2013-02-16 09:10:00,32.7,26.0,29.93,East,101,0.0,0.0,76,0.00,,,0.00,Wunderground v.1.15,2013-02-16 14:10:00,
2013-02-16 09:15:00,32.8,26.1,29.92,East,101,0.0,0.0,76,0.00,,,0.00,Wunderground v.1.15,2013-02-16 14:15:00,
2013-02-16 09:20:00,32.9,26.2,29.92,East,101,0.0,0.0,76,0.32,,,0.11,Wunderground v.1.15,2013-02-16 14:20:00,
2013-02-16 09:25:00,33.2,25.1,29.92,East,101,0.0,0.0,72,0.09,,,0.11,Wunderground v.1.15,2013-02-16 14:25:00,
2013-02-16 09:30:00,33.5,25.8,29.91,WSW,241,0.0,2.0,73,0.05,,,0.11,Wunderground v.1.15,2013-02-16 14:30:00,
2013-02-16 09:36:00,33.7,26.0,29.91,WSW,241,0.0,0.0,73,0.04,,,0.11,Wunderground v.1.15,2013-02-16 14:36:00,
2013-02-16 09:41:00,33.8,24.7,29.91,WSW,241,0.0,1.0,69,0.00,,,0.11,Wunderground v.1.15,2013-02-16 14:41:00,
2013-02-16 09:46:00,34.0,25.2,29.91,NNW,344,0.0,0.0,70,0.00,,,0.11,Wunderground v.1.15,2013-02-16 14:46:00,
2013-02-16 09:51:00,34.0,25.2,29.91,NNW,344,2.0,2.0,70,0.00,,,0.11,Wunderground v.1.15,2013-02-16 14:51:00,
2013-02-16 09:56:00,34.0,24.5,29.91,West,273,1.0,1.0,68,0.00,,,0.11,Wunderground v.1.15,2013-02-16 14:56:00,
2013-02-16 10:01:00,34.0,24.5,29.91,West,259,1.0,2.0,68,0.00,,,0.11,Wunderground v.1.15,2013-02-16 15:01:00,
2013-02-16 10:06:00,33.7,25.3,29.91,WSW,256,1.0,1.0,71,0.00,,,0.11,Wunderground v.1.15,2013-02-16 15:06:00,
2013-02-16 10:11:00,34.1,24.6,29.91,WSW,256,1.0,2.0,68,0.00,,,0.11,Wunderground v.1.15,2013-02-16 15:11:00,
2013-02-16 10:16:00,34.1,24.6,29.91,WNW,289,1.0,1.0,68,0.00,,,0.11,Wunderground v.1.15,2013-02-16 15:16:00,
2013-02-16 10:22:00,34.3,24.5,29.91,WSW,242,1.0,1.0,67,0.00,,,0.11,Wunderground v.1.15,2013-02-16 15:22:00,
2013-02-16 10:27:00,34.6,24.8,29.90,SSW,210,0.0,2.0,67,0.00,,,0.11,Wunderground v.1.15,2013-02-16 15:27:00,
2013-02-16 10:32:00,35.0,24.0,29.90,SSW,213,1.0,2.0,64,0.00,,,0.11,Wunderground v.1.15,2013-02-16 15:32:00,
2013-02-16 10:37:00,35.3,24.3,29.90,WSW,254,0.0,2.0,64,0.00,,,0.11,Wunderground v.1.15,2013-02-16 15:37:00,
2013-02-16 10:43:00,35.2,23.1,29.90,WSW,254,0.0,2.0,61,0.00,,,0.11,Wunderground v.1.15,2013-02-16 15:43:00,
2013-02-16 10:48:00,35.2,23.1,29.90,West,270,0.0,1.0,61,0.00,,,0.11,Wunderground v.1.15,2013-02-16 15:48:00,
2013-02-16 10:53:00,35.3,23.2,29.90,West,262,1.0,2.0,61,0.00,,,0.11,Wunderground v.1.15,2013-02-16 15:53:00,
2013-02-16 10:58:00,35.8,23.3,29.90,SW,215,1.0,2.0,60,0.00,,,0.11,Wunderground v.1.15,2013-02-16 15:58:00,
2013-02-16 11:03:00,35.9,23.0,29.90,NW,317,1.0,2.0,59,0.00,,,0.11,Wunderground v.1.15,2013-02-16 16:03:00,
2013-02-16 11:08:00,35.9,24.5,29.90,West,261,1.0,2.0,63,0.00,,,0.11,Wunderground v.1.15,2013-02-16 16:08:00,
2013-02-16 11:13:00,36.3,23.3,29.90,SE,135,1.0,2.0,59,0.00,,,0.11,Wunderground v.1.15,2013-02-16 16:13:00,
2013-02-16 11:18:00,36.3,24.1,29.90,WSW,239,1.0,4.0,61,0.00,,,0.11,Wunderground v.1.15,2013-02-16 16:18:00,
2013-02-16 11:23:00,36.3,24.5,29.90,WSW,239,1.0,4.0,62,0.00,,,0.11,Wunderground v.1.15,2013-02-16 16:23:00,
2013-02-16 11:29:00,36.5,24.3,29.90,WSW,239,0.0,2.0,61,0.00,,,0.11,Wunderground v.1.15,2013-02-16 16:29:00,
2013-02-16 11:34:00,36.5,23.9,29.90,West,270,1.0,2.0,60,0.00,,,0.11,Wunderground v.1.15,2013-02-16 16:34:00,
2013-02-16 11:39:00,36.9,23.9,29.90,West,269,0.0,2.0,59,0.00,,,0.11,Wunderground v.1.15,2013-02-16 16:39:00,
2013-02-16 11:44:00,36.9,24.7,29.88,WSW,254,2.0,4.0,61,0.00,,,0.11,Wunderground v.1.15,2013-02-16 16:44:00,
2013-02-16 11:49:00,37.0,24.0,29.88,SW,218,0.0,1.0,59,0.00,,,0.11,Wunderground v.1.15,2013-02-16 16:49:00,
2013-02-16 11:54:00,37.0,22.3,29.88,SW,218,1.0,1.0,55,0.00,,,0.11,Wunderground v.1.15,2013-02-16 16:54:00,
2013-02-16 11:59:00,37.0,22.3,29.87,SW,235,0.0,4.0,55,0.00,,,0.11,Wunderground v.1.15,2013-02-16 16:59:00,
2013-02-16 12:04:00,36.6,23.2,29.87,South,177,0.0,4.0,58,0.00,,,0.11,Wunderground v.1.15,2013-02-16 17:04:00,
2013-02-16 12:10:00,36.5,24.7,29.87,West,273,0.0,1.0,62,0.00,,,0.11,Wunderground v.1.15,2013-02-16 17:10:00,
2013-02-16 12:15:00,36.3,24.9,29.87,WSW,244,4.0,4.0,63,0.00,,,0.11,Wunderground v.1.15,2013-02-16 17:15:00,
2013-02-16 12:20:00,36.5,24.3,29.87,WSW,242,1.0,2.0,61,0.00,,,0.11,Wunderground v.1.15,2013-02-16 17:20:00,
2013-02-16 12:25:00,36.6,24.0,29.87,WSW,238,0.0,2.0,60,0.00,,,0.11,Wunderground v.1.15,2013-02-16 17:25:00,
2013-02-16 12:30:00,36.6,24.4,29.87,SW,220,0.0,2.0,61,0.00,,,0.11,Wunderground v.1.15,2013-02-16 17:30:00,
2013-02-16 12:35:00,36.5,24.3,29.87,West,259,2.0,2.0,61,0.00,,,0.11,Wunderground v.1.15,2013-02-16 17:35:00,
2013-02-16 12:40:00,36.8,23.8,29.87,SW,230,2.0,2.0,59,0.00,,,0.11,Wunderground v.1.15,2013-02-16 17:40:00,
2013-02-16 12:45:00,36.6,23.6,29.86,West,280,0.0,1.0,59,0.00,,,0.11,Wunderground v.1.15,2013-02-16 17:45:00,
2013-02-16 12:50:00,36.3,22.5,29.86,West,275,0.0,2.0,57,0.00,,,0.11,Wunderground v.1.15,2013-02-16 17:50:00,
2013-02-16 12:56:00,36.0,24.2,29.86,WSW,244,1.0,1.0,62,0.00,,,0.11,Wunderground v.1.15,2013-02-16 17:56:00,
2013-02-16 13:01:00,36.2,24.4,29.86,WSW,244,1.0,2.0,62,0.00,,,0.11,Wunderground v.1.15,2013-02-16 18:01:00,
2013-02-16 13:06:00,36.3,22.5,29.86,WNW,286,1.0,2.0,57,0.00,,,0.11,Wunderground v.1.15,2013-02-16 18:06:00,
2013-02-16 13:11:00,36.2,22.0,29.86,NW,317,0.0,2.0,56,0.00,,,0.11,Wunderground v.1.15,2013-02-16 18:11:00,
2013-02-16 13:16:00,36.2,24.0,29.86,NW,316,1.0,1.0,61,0.00,,,0.11,Wunderground v.1.15,2013-02-16 18:16:00,
2013-02-16 13:21:00,36.0,23.8,29.86,NW,316,0.0,1.0,61,0.00,,,0.11,Wunderground v.1.15,2013-02-16 18:21:00,
2013-02-16 13:26:00,36.2,23.6,29.85,WNW,302,0.0,1.0,60,0.00,,,0.11,Wunderground v.1.15,2013-02-16 18:26:00,
2013-02-16 13:31:00,36.3,24.1,29.85,WNW,297,1.0,2.0,61,0.00,,,0.11,Wunderground v.1.15,2013-02-16 18:31:00,
2013-02-16 13:37:00,36.3,22.1,29.85,West,259,1.0,2.0,56,0.00,,,0.11,Wunderground v.1.15,2013-02-16 18:37:00,
2013-02-16 13:42:00,36.2,23.6,29.85,WSW,254,1.0,2.0,60,0.00,,,0.11,Wunderground v.1.15,2013-02-16 18:42:00,
2013-02-16 13:48:00,36.2,22.8,29.85,SW,214,1.0,1.0,58,0.00,,,0.11,Wunderground v.1.15,2013-02-16 18:48:00,
2013-02-16 13:53:00,36.0,21.4,29.85,West,273,1.0,2.0,55,0.00,,,0.11,Wunderground v.1.15,2013-02-16 18:53:00,
2013-02-16 13:58:00,36.0,23.0,29.85,SW,234,0.0,4.0,59,0.00,,,0.11,Wunderground v.1.15,2013-02-16 18:58:00,
2013-02-16 14:03:00,36.0,23.0,29.85,SW,222,1.0,4.0,59,0.00,,,0.11,Wunderground v.1.15,2013-02-16 19:03:00,
2013-02-16 14:08:00,35.9,23.0,29.85,WSW,239,1.0,2.0,59,0.00,,,0.11,Wunderground v.1.15,2013-02-16 19:08:00,
2013-02-16 14:13:00,35.9,24.5,29.85,West,265,1.0,4.0,63,0.00,,,0.11,Wunderground v.1.15,2013-02-16 19:13:00,
2013-02-16 14:18:00,35.5,24.1,29.85,West,276,1.0,2.0,63,0.00,,,0.11,Wunderground v.1.15,2013-02-16 19:18:00,
2013-02-16 14:23:00,35.3,24.0,29.85,West,276,1.0,2.0,63,0.00,,,0.11,Wunderground v.1.15,2013-02-16 19:23:00,
2013-02-16 14:29:00,35.5,24.1,29.85,West,266,1.0,2.0,63,0.00,,,0.11,Wunderground v.1.15,2013-02-16 19:29:00,
2013-02-16 14:34:00,35.3,23.2,29.85,NNW,328,1.0,2.0,61,0.00,,,0.11,Wunderground v.1.15,2013-02-16 19:34:00,
2013-02-16 14:39:00,35.3,23.2,29.85,WSW,249,1.0,4.0,61,0.00,,,0.11,Wunderground v.1.15,2013-02-16 19:39:00,
2013-02-16 14:44:00,35.3,22.0,29.85,West,259,2.0,4.0,58,0.00,,,0.11,Wunderground v.1.15,2013-02-16 19:44:00,
2013-02-16 14:49:00,35.2,21.9,29.85,WNW,290,1.0,4.0,58,0.00,,,0.11,Wunderground v.1.15,2013-02-16 19:49:00,
2013-02-16 14:55:00,35.0,19.6,29.85,WNW,297,2.0,4.0,53,0.00,,,0.11,Wunderground v.1.15,2013-02-16 19:55:00,
2013-02-16 15:00:00,34.9,21.2,29.85,WNW,296,0.0,2.0,57,0.00,,,0.11,Wunderground v.1.15,2013-02-16 20:00:00,
2013-02-16 15:05:00,34.9,21.6,29.85,West,268,0.0,2.0,58,0.00,,,0.11,Wunderground v.1.15,2013-02-16 20:05:00,
2013-02-16 15:10:00,35.0,21.7,29.85,WSW,258,1.0,4.0,58,0.00,,,0.11,Wunderground v.1.15,2013-02-16 20:10:00,
2013-02-16 15:15:00,35.0,21.7,29.85,WSW,254,0.0,4.0,58,0.00,,,0.11,Wunderground v.1.15,2013-02-16 20:15:00,
2013-02-16 15:20:00,35.2,21.5,29.85,North,358,0.0,4.0,57,0.00,,,0.11,Wunderground v.1.15,2013-02-16 20:20:00,
2013-02-16 15:25:00,35.2,20.6,29.85,West,278,0.0,1.0,55,0.00,,,0.11,Wunderground v.1.15,2013-02-16 20:25:00,
2013-02-16 15:30:00,34.7,21.0,29.85,West,279,0.0,2.0,57,0.00,,,0.11,Wunderground v.1.15,2013-02-16 20:30:00,
2013-02-16 15:36:00,34.6,20.9,29.85,West,280,1.0,1.0,57,0.00,,,0.11,Wunderground v.1.15,2013-02-16 20:36:00,
2013-02-16 15:41:00,34.7,21.0,29.85,WSW,244,0.0,2.0,57,0.00,,,0.11,Wunderground v.1.15,2013-02-16 20:41:00,
2013-02-16 15:46:00,34.6,20.5,29.85,WSW,242,2.0,2.0,56,0.00,,,0.11,Wunderground v.1.15,2013-02-16 20:46:00,
2013-02-16 15:51:00,34.4,20.3,29.85,North,350,0.0,2.0,56,0.00,,,0.11,Wunderground v.1.15,2013-02-16 20:51:00,
2013-02-16 15:56:00,34.6,19.2,29.85,North,351,0.0,1.0,53,0.00,,,0.11,Wunderground v.1.15,2013-02-16 20:56:00,
2013-02-16 16:01:00,34.6,19.6,29.85,North,351,0.0,1.0,54,0.00,,,0.11,Wunderground v.1.15,2013-02-16 21:01:00,
2013-02-16 16:06:00,34.7,20.6,29.85,West,270,2.0,2.0,56,0.00,,,0.11,Wunderground v.1.15,2013-02-16 21:06:00,
2013-02-16 16:11:00,34.4,18.6,29.85,West,276,1.0,2.0,52,0.00,,,0.11,Wunderground v.1.15,2013-02-16 21:11:00,
2013-02-16 16:16:00,34.1,19.6,29.85,West,269,1.0,1.0,55,0.00,,,0.11,Wunderground v.1.15,2013-02-16 21:16:00,
2013-02-16 16:22:00,34.0,21.2,29.85,West,269,0.0,1.0,59,0.00,,,0.11,Wunderground v.1.15,2013-02-16 21:22:00,
2013-02-16 16:27:00,33.7,19.2,29.84,West,269,0.0,1.0,55,0.00,,,0.11,Wunderground v.1.15,2013-02-16 21:27:00,
2013-02-16 16:32:00,33.5,20.3,29.84,West,269,0.0,1.0,58,0.00,,,0.11,Wunderground v.1.15,2013-02-16 21:32:00,
2013-02-16 16:37:00,33.2,20.4,29.84,North,358,1.0,2.0,59,0.00,,,0.11,Wunderground v.1.15,2013-02-16 21:37:00,
2013-02-16 16:42:00,33.1,20.3,29.84,West,262,1.0,2.0,59,0.00,,,0.11,Wunderground v.1.15,2013-02-16 21:42:00,
2013-02-16 16:48:00,32.9,20.1,29.84,West,276,0.0,2.0,59,0.00,,,0.11,Wunderground v.1.15,2013-02-16 21:48:00,
2013-02-16 16:53:00,32.8,19.6,29.84,West,276,0.0,2.0,58,0.00,,,0.11,Wunderground v.1.15,2013-02-16 21:53:00,
2013-02-16 16:58:00,32.5,20.1,29.83,West,262,2.0,2.0,60,0.00,,,0.11,Wunderground v.1.15,2013-02-16 21:58:00,
2013-02-16 17:03:00,32.2,17.8,29.83,NW,314,1.0,2.0,55,0.00,,,0.11,Wunderground v.1.15,2013-02-16 22:03:00,
2013-02-16 17:08:00,32.1,17.7,29.83,WNW,299,2.0,2.0,55,0.00,,,0.11,Wunderground v.1.15,2013-02-16 22:08:00,
2013-02-16 17:13:00,31.9,17.5,29.83,WNW,292,1.0,2.0,55,0.00,,,0.11,Wunderground v.1.15,2013-02-16 22:13:00,
2013-02-16 17:18:00,31.6,20.1,29.83,WNW,282,0.0,1.0,62,0.00,,,0.11,Wunderground v.1.15,2013-02-16 22:18:00,
2013-02-16 17:24:00,31.6,17.3,29.83,WNW,282,0.0,2.0,55,0.00,,,0.11,Wunderground v.1.15,2013-02-16 22:24:00,
2013-02-16 17:29:00,31.3,19.8,29.84,WNW,282,0.0,1.0,62,0.00,,,0.11,Wunderground v.1.15,2013-02-16 22:29:00,
2013-02-16 17:34:00,31.3,19.8,29.84,West,261,0.0,1.0,62,0.00,,,0.11,Wunderground v.1.15,2013-02-16 22:34:00,
2013-02-16 17:39:00,31.2,20.1,29.84,West,261,0.0,1.0,63,0.00,,,0.11,Wunderground v.1.15,2013-02-16 22:39:00,
2013-02-16 17:45:00,31.2,17.3,29.84,West,269,0.0,2.0,56,0.00,,,0.11,Wunderground v.1.15,2013-02-16 22:45:00,
2013-02-16 17:50:00,31.2,19.7,29.84,NW,309,1.0,1.0,62,0.00,,,0.11,Wunderground v.1.15,2013-02-16 22:50:00,
2013-02-16 17:55:00,31.2,18.9,29.84,NW,309,0.0,1.0,60,0.00,,,0.11,Wunderground v.1.15,2013-02-16 22:55:00,
2013-02-16 18:00:00,31.0,19.5,29.85,WNW,302,0.0,1.0,62,0.00,,,0.11,Wunderground v.1.15,2013-02-16 23:00:00,
2013-02-16 18:05:00,31.0,19.5,29.85,WNW,302,0.0,1.0,62,0.00,,,0.11,Wunderground v.1.15,2013-02-16 23:05:00,
2013-02-16 18:10:00,30.9,19.8,29.85,WNW,302,0.0,0.0,63,0.00,,,0.11,Wunderground v.1.15,2013-02-16 23:10:00,
2013-02-16 18:15:00,30.7,20.3,29.85,WNW,302,0.0,0.0,65,0.00,,,0.11,Wunderground v.1.15,2013-02-16 23:15:00,
2013-02-16 18:20:00,30.7,19.2,29.85,NW,326,1.0,2.0,62,0.00,,,0.11,Wunderground v.1.15,2013-02-16 23:20:00,
2013-02-16 18:25:00,30.7,19.2,29.85,West,262,0.0,0.0,62,0.00,,,0.11,Wunderground v.1.15,2013-02-16 23:25:00,
2013-02-16 18:31:00,30.7,17.3,29.85,NW,310,2.0,2.0,57,0.00,,,0.11,Wunderground v.1.15,2013-02-16 23:31:00,
2013-02-16 18:36:00,30.7,16.8,29.85,NW,316,2.0,2.0,56,0.00,,,0.11,Wunderground v.1.15,2013-02-16 23:36:00,
2013-02-16 18:41:00,30.7,16.8,29.84,WNW,285,1.0,6.0,56,0.00,,,0.11,Wunderground v.1.15,2013-02-16 23:41:00,
2013-02-16 18:46:00,30.6,17.6,29.84,WNW,299,0.0,1.0,58,0.00,,,0.11,Wunderground v.1.15,2013-02-16 23:46:00,
2013-02-16 18:51:00,30.4,18.2,29.84,NW,310,1.0,2.0,60,0.00,,,0.11,Wunderground v.1.15,2013-02-16 23:51:00,
2013-02-16 18:56:00,30.3,16.5,29.84,WNW,303,1.0,1.0,56,0.00,,,0.11,Wunderground v.1.15,2013-02-16 23:56:00,
2013-02-16 19:01:00,30.3,17.3,29.84,WNW,303,0.0,1.0,58,0.00,,,0.11,Wunderground v.1.15,2013-02-17 00:01:00,
2013-02-16 19:07:00,30.1,17.1,29.84,West,263,0.0,2.0,58,0.00,,,0.11,Wunderground v.1.15,2013-02-17 00:07:00,
2013-02-16 19:12:00,30.1,16.3,29.84,West,278,1.0,2.0,56,0.00,,,0.11,Wunderground v.1.15,2013-02-17 00:12:00,
2013-02-16 19:18:00,30.0,15.8,29.84,North,357,2.0,2.0,55,0.00,,,0.11,Wunderground v.1.15,2013-02-17 00:18:00,
2013-02-16 19:23:00,30.0,15.8,29.84,WNW,290,0.0,2.0,55,0.00,,,0.11,Wunderground v.1.15,2013-02-17 00:23:00,
2013-02-16 19:28:00,29.8,17.6,29.84,WNW,290,0.0,1.0,60,0.00,,,0.11,Wunderground v.1.15,2013-02-17 00:28:00,
2013-02-16 19:33:00,29.7,15.9,29.84,SSW,196,0.0,1.0,56,0.00,,,0.11,Wunderground v.1.15,2013-02-17 00:33:00,
2013-02-16 19:38:00,29.5,15.3,29.84,West,270,0.0,2.0,55,0.00,,,0.11,Wunderground v.1.15,2013-02-17 00:38:00,
2013-02-16 19:43:00,29.5,15.3,29.84,West,270,0.0,2.0,55,0.00,,,0.11,Wunderground v.1.15,2013-02-17 00:43:00,
2013-02-16 19:48:00,29.5,15.3,29.84,SSE,156,0.0,1.0,55,0.00,,,0.11,Wunderground v.1.15,2013-02-17 00:48:00,
2013-02-16 19:53:00,29.5,15.3,29.84,WSW,252,0.0,1.0,55,0.00,,,0.11,Wunderground v.1.15,2013-02-17 00:53:00,
2013-02-16 19:58:00,29.4,15.2,29.84,WSW,252,0.0,1.0,55,0.00,,,0.11,Wunderground v.1.15,2013-02-17 00:58:00,
2013-02-16 20:04:00,29.4,13.9,29.84,West,261,1.0,2.0,52,0.00,,,0.11,Wunderground v.1.15,2013-02-17 01:04:00,
2013-02-16 20:09:00,29.4,16.4,29.84,West,261,0.0,1.0,58,0.00,,,0.11,Wunderground v.1.15,2013-02-17 01:09:00,
2013-02-16 20:14:00,29.3,16.3,29.84,WNW,285,0.0,6.0,58,0.00,,,0.11,Wunderground v.1.15,2013-02-17 01:14:00,
2013-02-16 20:19:00,29.1,16.1,29.84,WNW,292,0.0,2.0,58,0.00,,,0.11,Wunderground v.1.15,2013-02-17 01:19:00,
2013-02-16 20:24:00,29.0,13.1,29.84,WNW,283,0.0,2.0,51,0.00,,,0.11,Wunderground v.1.15,2013-02-17 01:24:00,
2013-02-16 20:29:00,29.0,12.7,29.83,West,280,1.0,1.0,50,0.00,,,0.11,Wunderground v.1.15,2013-02-17 01:29:00,
2013-02-16 20:34:00,28.8,13.8,29.83,WNW,285,0.0,1.0,53,0.00,,,0.11,Wunderground v.1.15,2013-02-17 01:34:00,
2013-02-16 20:40:00,28.8,13.8,29.83,WNW,289,0.0,1.0,53,0.00,,,0.11,Wunderground v.1.15,2013-02-17 01:40:00,
2013-02-16 20:45:00,28.8,14.6,29.83,WNW,289,0.0,1.0,55,0.00,,,0.11,Wunderground v.1.15,2013-02-17 01:45:00,
2013-02-16 20:50:00,28.7,15.0,29.83,WNW,289,0.0,1.0,56,0.00,,,0.11,Wunderground v.1.15,2013-02-17 01:50:00,
2013-02-16 20:55:00,28.5,14.8,29.83,WNW,289,0.0,4.0,56,0.00,,,0.11,Wunderground v.1.15,2013-02-17 01:55:00,
2013-02-16 21:00:00,28.4,13.0,29.83,West,279,1.0,4.0,52,0.00,,,0.11,Wunderground v.1.15,2013-02-17 02:00:00,
2013-02-16 21:05:00,28.4,13.0,29.83,West,280,1.0,4.0,52,0.00,,,0.11,Wunderground v.1.15,2013-02-17 02:05:00,
2013-02-16 21:10:00,28.4,13.4,29.83,WNW,282,0.0,1.0,53,0.00,,,0.11,Wunderground v.1.15,2013-02-17 02:10:00,
2013-02-16 21:15:00,28.2,13.7,29.81,WNW,282,0.0,1.0,54,0.00,,,0.11,Wunderground v.1.15,2013-02-17 02:15:00,
2013-02-16 21:20:00,28.1,14.8,29.81,WNW,282,0.0,1.0,57,0.00,,,0.11,Wunderground v.1.15,2013-02-17 02:20:00,
2013-02-16 21:25:00,27.9,12.1,29.81,West,259,0.0,0.0,51,0.00,,,0.11,Wunderground v.1.15,2013-02-17 02:25:00,
2013-02-16 21:31:00,27.9,12.5,29.82,WSW,258,1.0,1.0,52,0.00,,,0.11,Wunderground v.1.15,2013-02-17 02:31:00,
2013-02-16 21:36:00,27.8,11.1,29.82,WSW,241,1.0,2.0,49,0.00,,,0.11,Wunderground v.1.15,2013-02-17 02:36:00,
2013-02-16 21:41:00,27.6,12.2,29.82,NW,311,0.0,2.0,52,0.00,,,0.11,Wunderground v.1.15,2013-02-17 02:41:00,
2013-02-16 21:46:00,27.5,12.6,29.82,West,266,1.0,1.0,53,0.00,,,0.11,Wunderground v.1.15,2013-02-17 02:46:00,
2013-02-16 21:51:00,27.3,12.8,29.82,West,266,0.0,1.0,54,0.00,,,0.11,Wunderground v.1.15,2013-02-17 02:51:00,
2013-02-16 21:56:00,27.2,13.6,29.81,West,279,2.0,2.0,56,0.00,,,0.11,Wunderground v.1.15,2013-02-17 02:56:00,
2013-02-16 22:01:00,27.0,13.4,29.81,West,265,0.0,2.0,56,0.00,,,0.11,Wunderground v.1.15,2013-02-17 03:01:00,
2013-02-16 22:06:00,27.0,15.3,29.81,West,265,1.0,1.0,61,0.00,,,0.11,Wunderground v.1.15,2013-02-17 03:06:00,
2013-02-16 22:12:00,26.7,14.3,29.81,West,268,1.0,4.0,59,0.00,,,0.11,Wunderground v.1.15,2013-02-17 03:12:00,
2013-02-16 22:17:00,26.6,14.2,29.81,West,268,1.0,1.0,59,0.00,,,0.11,Wunderground v.1.15,2013-02-17 03:17:00,
2013-02-16 22:23:00,26.4,13.6,29.81,West,280,0.0,2.0,58,0.00,,,0.11,Wunderground v.1.15,2013-02-17 03:23:00,
2013-02-16 22:28:00,26.4,11.6,29.81,WNW,294,1.0,1.0,53,0.00,,,0.11,Wunderground v.1.15,2013-02-17 03:28:00,
2013-02-16 22:33:00,26.3,11.9,29.81,WNW,286,1.0,2.0,54,0.00,,,0.11,Wunderground v.1.15,2013-02-17 03:33:00,
2013-02-16 22:38:00,26.3,11.5,29.81,NW,304,0.0,2.0,53,0.00,,,0.11,Wunderground v.1.15,2013-02-17 03:38:00,
2013-02-16 22:43:00,26.1,11.3,29.79,West,272,1.0,2.0,53,0.00,,,0.11,Wunderground v.1.15,2013-02-17 03:43:00,
2013-02-16 22:48:00,26.1,11.7,29.79,SSE,160,1.0,1.0,54,0.00,,,0.11,Wunderground v.1.15,2013-02-17 03:48:00,
2013-02-16 22:53:00,26.1,10.0,29.79,WSW,242,1.0,1.0,50,0.00,,,0.11,Wunderground v.1.15,2013-02-17 03:53:00,
2013-02-16 22:58:00,26.0,11.6,29.78,WNW,289,2.0,4.0,54,0.00,,,0.11,Wunderground v.1.15,2013-02-17 03:58:00,
2013-02-16 23:03:00,26.0,8.0,29.78,NW,309,0.0,4.0,46,0.00,,,0.11,Wunderground v.1.15,2013-02-17 04:03:00,
2013-02-16 23:09:00,25.8,9.2,29.78,West,280,0.0,1.0,49,0.00,,,0.11,Wunderground v.1.15,2013-02-17 04:09:00,
2013-02-16 23:14:00,25.8,9.2,29.77,West,279,0.0,2.0,49,0.00,,,0.11,Wunderground v.1.15,2013-02-17 04:14:00,
2013-02-16 23:19:00,25.7,8.2,29.77,SSW,207,0.0,1.0,47,0.00,,,0.11,Wunderground v.1.15,2013-02-17 04:19:00,
2013-02-16 23:24:00,25.7,8.7,29.77,NW,326,2.0,2.0,48,0.00,,,0.11,Wunderground v.1.15,2013-02-17 04:24:00,
2013-02-16 23:30:00,25.6,7.2,29.76,NNW,327,0.0,2.0,45,0.00,,,0.11,Wunderground v.1.15,2013-02-17 04:30:00,
2013-02-16 23:35:00,25.6,8.1,29.76,NNW,335,0.0,4.0,47,0.00,,,0.11,Wunderground v.1.15,2013-02-17 04:35:00,
2013-02-16 23:40:00,25.4,7.9,29.76,WNW,286,1.0,1.0,47,0.00,,,0.11,Wunderground v.1.15,2013-02-17 04:40:00,
2013-02-16 23:45:00,25.4,8.4,29.75,WSW,252,0.0,4.0,48,0.00,,,0.11,Wunderground v.1.15,2013-02-17 04:45:00,
2013-02-16 23:50:00,25.3,7.9,29.75,West,269,1.0,2.0,47,0.00,,,0.11,Wunderground v.1.15,2013-02-17 04:50:00,
2013-02-16 23:55:00,25.1,6.7,29.75,WNW,286,2.0,2.0,45,0.00,,,0.11,Wunderground v.1.15,2013-02-17 04:55:00,